Time;durP1;ratioP1;P1;durP2;ratioP2;P2;SDS_P1;SDS_P2;PMS_P1;PMS_P2;Temp;Humidity;BMP_temperature;BMP_pressure;BME280_temperature;BME280_humidity;BME280_pressure;Samples;Min_cycle;Max_cycle;Signal;HPM_P1;HPM_P2
2022/06/05 00:01:04;;;;;;;2.60;2.03;;;23.60;47.70;;;;;;4936187;29;20024;-77
2022/06/05 00:03:36;;;;;;;2.88;2.10;;;23.50;47.70;;;;;;4937112;29;20103;-78
2022/06/05 00:06:20;;;;;;;2.05;1.80;;;23.50;47.70;;;;;;4920227;29;20445;-78
2022/06/05 00:09:11;;;;;;;2.58;2.08;;;23.50;47.80;;;;;;4935152;29;20027;-78
2022/06/05 00:11:51;;;;;;;3.92;2.08;;;23.40;47.80;;;;;;4935531;29;20484;-78
2022/06/05 00:14:16;;;;;;;2.30;1.98;;;23.40;47.80;;;;;;4936404;29;20031;-77
2022/06/05 00:16:42;;;;;;;4.03;2.05;;;23.30;47.80;;;;;;4950511;29;20042;-77
2022/06/05 00:19:08;;;;;;;3.45;1.88;;;23.30;47.90;;;;;;4934865;29;20039;-77
2022/06/05 00:21:34;;;;;;;2.95;2.10;;;23.30;47.90;;;;;;4918517;29;20027;-78
2022/06/05 00:24:00;;;;;;;3.53;2.28;;;23.30;48.00;;;;;;4937444;29;20035;-76
2022/06/05 00:26:40;;;;;;;2.33;2.03;;;23.20;47.90;;;;;;4939218;29;20032;-78
2022/06/05 00:29:48;;;;;;;2.97;2.13;;;23.20;48.00;;;;;;4954137;29;20503;-78
2022/06/05 00:32:41;;;;;;;2.78;1.98;;;23.10;48.00;;;;;;4934608;29;20123;-77
2022/06/05 00:35:10;;;;;;;2.90;2.17;;;23.10;48.00;;;;;;4954046;29;20031;-77
2022/06/05 00:37:54;;;;;;;2.90;2.10;;;23.10;48.00;;;;;;4937959;29;20043;-78
2022/06/05 00:40:38;;;;;;;2.10;1.85;;;23.00;48.10;;;;;;4938253;29;20035;-77
2022/06/05 00:43:08;;;;;;;3.10;2.20;;;23.00;48.10;;;;;;4938261;29;20121;-77
2022/06/05 00:45:35;;;;;;;2.97;1.95;;;23.00;48.20;;;;;;4938962;29;20039;-79
2022/06/05 00:48:01;;;;;;;2.92;2.08;;;23.00;48.20;;;;;;4922264;29;20115;-78
2022/06/05 00:50:30;;;;;;;3.13;2.20;;;22.90;48.30;;;;;;4937723;29;20031;-77
2022/06/05 00:52:59;;;;;;;3.03;2.00;;;22.90;48.30;;;;;;4921653;29;20031;-78
2022/06/05 00:55:28;;;;;;;3.22;2.30;;;22.90;48.40;;;;;;4937801;29;20028;-77
2022/06/05 00:57:55;;;;;;;2.78;2.15;;;22.80;48.40;;;;;;4953376;29;20453;-77
2022/06/05 01:00:27;;;;;;;2.65;2.00;;;22.80;48.40;;;;;;4953218;29;20032;-78
2022/06/05 01:02:56;;;;;;;3.47;2.10;;;22.80;48.40;;;;;;4937692;29;20051;-77
2022/06/05 01:05:25;;;;;;;3.90;2.40;;;22.70;48.40;;;;;;4938399;29;20020;-77
2022/06/05 01:07:51;;;;;;;3.20;2.30;;;22.70;48.50;;;;;;4937084;29;20024;-77
2022/06/05 01:10:19;;;;;;;3.70;2.30;;;22.70;48.50;;;;;;4921981;29;20440;-77
2022/06/05 01:13:08;;;;;;;3.13;2.20;;;22.60;48.40;;;;;;4938853;29;20034;-79
2022/06/05 01:15:51;;;;;;;3.28;2.30;;;22.60;48.60;;;;;;4938809;29;20376;-77
2022/06/05 01:18:40;;;;;;;2.65;2.10;;;22.60;48.60;;;;;;4953798;29;20035;-77
2022/06/05 01:21:35;;;;;;;2.65;2.13;;;22.60;48.60;;;;;;4937120;29;20032;-77
2022/06/05 01:24:28;;;;;;;2.97;2.10;;;22.50;48.60;;;;;;4937781;29;20028;-78
2022/06/05 01:27:00;;;;;;;2.65;1.92;;;22.50;48.60;;;;;;4938026;29;20567;-78
2022/06/05 01:29:48;;;;;;;2.70;2.15;;;22.40;48.70;;;;;;4937732;29;20103;-78
2022/06/05 01:32:46;;;;;;;2.45;2.00;;;22.40;48.70;;;;;;4938193;29;20028;-78
2022/06/05 01:35:38;;;;;;;3.15;2.47;;;22.40;48.90;;;;;;4935937;29;20188;-78
2022/06/05 01:38:11;;;;;;;3.55;2.40;;;22.40;49.00;;;;;;4953587;29;20040;-77
2022/06/05 01:40:46;;;;;;;3.63;2.38;;;22.30;48.80;;;;;;4937190;29;20028;-79
2022/06/05 01:43:22;;;;;;;3.38;2.38;;;22.30;48.90;;;;;;4953603;29;20065;-79
2022/06/05 01:46:06;;;;;;;3.03;2.13;;;22.30;49.00;;;;;;4936586;29;20032;-78
2022/06/05 01:48:38;;;;;;;3.08;2.20;;;22.20;49.00;;;;;;4952993;29;20126;-78
2022/06/05 01:51:10;;;;;;;3.92;2.25;;;22.20;49.00;;;;;;4937933;29;20031;-77
2022/06/05 01:53:41;;;;;;;3.22;2.42;;;22.20;49.10;;;;;;4953324;29;20024;-79
2022/06/05 01:56:28;;;;;;;4.65;2.65;;;22.10;49.10;;;;;;4936860;29;20028;-78
2022/06/05 01:58:58;;;;;;;3.40;2.50;;;22.10;49.20;;;;;;4937578;29;20036;-78
2022/06/05 02:01:30;;;;;;;3.45;2.28;;;22.10;49.10;;;;;;4936895;29;20027;-78
2022/06/05 02:04:04;;;;;;;3.75;2.72;;;22.10;49.20;;;;;;4936669;29;20054;-78
2022/06/05 02:06:35;;;;;;;3.47;2.40;;;22.00;49.20;;;;;;4952595;29;20346;-78
2022/06/05 02:09:19;;;;;;;3.35;2.20;;;22.00;49.30;;;;;;4937020;29;20067;-79
2022/06/05 02:11:45;;;;;;;3.58;2.80;;;22.00;49.40;;;;;;4936334;29;20032;-78
2022/06/05 02:14:11;;;;;;;3.65;2.55;;;22.00;49.30;;;;;;4920995;29;20031;-78
2022/06/05 02:16:39;;;;;;;3.47;2.45;;;22.00;49.40;;;;;;4936246;29;20043;-78
2022/06/05 02:19:09;;;;;;;3.78;2.38;;;21.90;49.40;;;;;;4919888;29;20496;-77
2022/06/05 02:21:37;;;;;;;3.53;2.65;;;21.90;49.50;;;;;;4935678;29;20039;-78
2022/06/05 02:24:07;;;;;;;3.30;2.40;;;21.90;49.50;;;;;;4920672;29;20028;-76
2022/06/05 02:26:33;;;;;;;3.85;2.80;;;21.80;49.50;;;;;;4936009;29;20044;-77
2022/06/05 02:29:07;;;;;;;3.53;2.65;;;21.80;49.50;;;;;;4937533;28;20139;-77
2022/06/05 02:31:50;;;;;;;3.40;2.17;;;21.80;49.60;;;;;;4937516;29;20464;-77
2022/06/05 02:34:38;;;;;;;3.97;2.50;;;21.80;49.70;;;;;;4952258;29;20024;-76
2022/06/05 02:37:26;;;;;;;3.60;2.33;;;21.70;49.70;;;;;;4951815;29;20123;-77
2022/06/05 02:40:03;;;;;;;3.15;2.45;;;21.70;49.80;;;;;;4936295;29;20044;-77
2022/06/05 02:42:42;;;;;;;3.72;2.60;;;21.70;49.70;;;;;;4952375;29;20449;-77
2022/06/05 02:45:23;;;;;;;3.78;2.47;;;21.60;49.80;;;;;;4936174;29;20028;-77
2022/06/05 02:48:10;;;;;;;2.65;2.20;;;21.60;49.80;;;;;;4938432;29;20028;-75
2022/06/05 02:50:58;;;;;;;4.63;2.78;;;21.50;49.90;;;;;;4953343;29;20023;-77
2022/06/05 02:53:25;;;;;;;3.20;2.55;;;21.50;49.90;;;;;;4939579;29;20032;-77
2022/06/05 02:55:51;;;;;;;4.20;2.55;;;21.50;49.90;;;;;;4941939;29;20038;-78
2022/06/05 02:58:18;;;;;;;4.05;2.55;;;21.50;50.00;;;;;;4944559;29;20023;-79
2022/06/05 03:03:27;;;;;;;4.47;2.67;;;21.40;50.00;;;;;;4943012;29;20019;-77
2022/06/05 03:03:29;;;;;;;4.53;2.67;;;21.50;50.00;;;;;;4942549;29;20043;-77
2022/06/05 03:05:55;;;;;;;4.82;2.88;;;21.40;50.00;;;;;;4926292;29;20032;-78
2022/06/05 03:08:21;;;;;;;2.95;2.38;;;21.40;50.00;;;;;;4925882;29;20051;-78
2022/06/05 03:10:47;;;;;;;3.97;2.70;;;21.30;50.10;;;;;;4954132;29;20055;-77
2022/06/05 03:13:14;;;;;;;3.83;2.67;;;21.30;50.10;;;;;;4920647;29;20027;-77
2022/06/05 03:15:43;;;;;;;5.40;3.17;;;21.30;50.10;;;;;;4920696;29;20028;-78
2022/06/05 03:18:12;;;;;;;3.92;2.78;;;21.30;50.20;;;;;;4936542;29;20024;-78
2022/06/05 03:20:38;;;;;;;4.35;2.65;;;21.30;50.20;;;;;;4937311;29;20023;-78
2022/06/05 03:23:09;;;;;;;5.20;2.85;;;21.20;50.20;;;;;;4951678;29;20024;-78
2022/06/05 03:25:39;;;;;;;3.53;2.75;;;21.20;50.20;;;;;;4935692;29;20043;-78
2022/06/05 03:28:07;;;;;;;4.00;2.85;;;21.20;50.30;;;;;;4936621;29;20428;-77
2022/06/05 03:30:36;;;;;;;4.00;2.92;;;21.20;50.30;;;;;;4904285;29;20035;-77
2022/06/05 03:33:02;;;;;;;3.88;2.65;;;21.20;50.40;;;;;;4936681;29;20029;-77
2022/06/05 03:35:28;;;;;;;4.20;3.00;;;21.10;51.00;;;;;;4935355;29;20079;-77
2022/06/05 03:37:53;;;;;;;3.45;2.72;;;21.10;50.40;;;;;;4935308;29;20063;-77
2022/06/05 03:40:19;;;;;;;3.58;2.55;;;21.10;50.50;;;;;;4903957;29;20354;-77
2022/06/05 03:42:45;;;;;;;3.97;2.70;;;21.00;50.40;;;;;;4919769;29;20023;-76
2022/06/05 03:45:15;;;;;;;4.53;3.42;;;21.00;50.50;;;;;;4919587;29;20035;-77
2022/06/05 03:47:42;;;;;;;3.70;2.63;;;21.00;50.60;;;;;;4935380;29;20036;-77
2022/06/05 03:50:09;;;;;;;4.07;2.90;;;20.90;50.50;;;;;;4904734;29;20090;-78
2022/06/05 03:52:34;;;;;;;3.78;2.78;;;20.90;50.60;;;;;;4936269;29;20106;-77
2022/06/05 03:55:00;;;;;;;4.00;2.90;;;20.90;50.70;;;;;;4935934;29;20118;-79
2022/06/05 03:57:26;;;;;;;3.42;2.67;;;20.90;50.60;;;;;;4935560;29;20357;-77
2022/06/05 03:59:52;;;;;;;4.07;2.80;;;20.80;50.60;;;;;;4938884;29;20043;-78
2022/06/05 04:02:17;;;;;;;4.50;3.00;;;20.80;50.70;;;;;;4940498;29;20087;-77
2022/06/05 04:04:43;;;;;;;3.72;2.63;;;20.80;50.70;;;;;;4922985;29;20034;-77
2022/06/05 04:07:10;;;;;;;3.78;2.80;;;20.80;50.70;;;;;;4938851;29;20091;-77
2022/06/05 04:09:36;;;;;;;4.47;3.08;;;20.80;50.70;;;;;;4954947;29;20480;-79
2022/06/05 04:12:02;;;;;;;3.53;2.70;;;20.70;50.70;;;;;;4938828;29;20067;-77
2022/06/05 04:14:27;;;;;;;4.03;2.90;;;20.70;50.70;;;;;;4954655;29;20024;-78
2022/06/05 04:16:53;;;;;;;4.43;3.00;;;20.70;50.80;;;;;;4938490;29;20118;-77
2022/06/05 04:19:20;;;;;;;5.72;3.40;;;20.70;50.90;;;;;;4939955;29;20098;-77
2022/06/05 04:21:47;;;;;;;4.07;2.88;;;20.60;50.90;;;;;;4938947;29;20058;-78
2022/06/05 04:24:14;;;;;;;4.25;3.22;;;20.60;50.80;;;;;;4922701;29;20078;-78
2022/06/05 04:26:41;;;;;;;5.00;3.08;;;20.60;50.90;;;;;;4923550;29;20123;-79
2022/06/05 04:29:07;;;;;;;4.40;3.35;;;20.60;50.90;;;;;;4922698;29;20035;-79
2022/06/05 04:31:36;;;;;;;4.75;3.33;;;20.50;50.90;;;;;;4907333;29;20038;-79
2022/06/05 04:34:06;;;;;;;4.15;2.90;;;20.50;50.90;;;;;;4939410;29;20079;-79
2022/06/05 04:36:32;;;;;;;4.07;3.13;;;20.50;51.00;;;;;;4939795;29;20449;-78
2022/06/05 04:38:58;;;;;;;4.57;3.20;;;20.50;51.00;;;;;;4922936;29;20428;-78
2022/06/05 04:41:25;;;;;;;4.90;3.03;;;20.50;51.10;;;;;;4939384;29;20047;-79
2022/06/05 04:43:51;;;;;;;5.57;3.28;;;20.50;51.20;;;;;;4938449;29;20130;-78
2022/06/05 04:46:19;;;;;;;4.97;3.22;;;20.40;51.10;;;;;;4953932;29;20038;-79
2022/06/05 04:48:46;;;;;;;3.70;2.83;;;20.40;51.20;;;;;;4939658;29;20032;-79
2022/06/05 04:51:15;;;;;;;3.88;2.85;;;20.40;51.20;;;;;;4938467;29;20383;-77
2022/06/05 04:53:42;;;;;;;4.55;3.10;;;20.40;51.30;;;;;;4953741;29;20032;-77
2022/06/05 04:56:11;;;;;;;4.18;2.83;;;20.40;51.30;;;;;;4937773;29;20086;-77
2022/06/05 04:58:38;;;;;;;4.45;3.03;;;20.40;51.30;;;;;;4922368;29;20074;-78
2022/06/05 05:01:23;;;;;;;4.78;3.13;;;20.30;51.30;;;;;;4937947;29;20027;-77
2022/06/05 05:03:51;;;;;;;;;;;20.30;51.40;;;;;;4938407;29;20066;-78
2022/06/05 05:06:17;;;;;;;4.00;2.80;;;20.30;51.20;;;;;;4953861;29;19902;-78
2022/06/05 05:08:43;;;;;;;4.18;3.00;;;20.30;51.30;;;;;;4953844;29;20464;-78
2022/06/05 05:11:08;;;;;;;3.45;2.65;;;20.30;51.50;;;;;;4936611;29;20397;-78
2022/06/05 05:13:35;;;;;;;4.68;3.10;;;20.30;51.60;;;;;;4938346;29;20028;-77
2022/06/05 05:16:01;;;;;;;4.82;2.88;;;20.30;51.70;;;;;;4953308;29;20481;-78
2022/06/05 05:18:27;;;;;;;4.20;3.03;;;20.30;51.70;;;;;;4937750;29;20035;-78
2022/06/05 05:20:53;;;;;;;4.15;3.13;;;20.30;51.80;;;;;;4921941;29;20030;-77
2022/06/05 05:23:19;;;;;;;3.65;2.90;;;20.30;51.80;;;;;;4937095;29;20046;-77
2022/06/05 05:25:46;;;;;;;4.47;3.35;;;20.30;51.80;;;;;;4936752;29;20051;-77
2022/06/05 05:28:13;;;;;;;4.57;3.55;;;20.20;51.80;;;;;;4937228;29;20028;-78
2022/06/05 05:30:44;;;;;;;4.53;3.40;;;20.30;51.90;;;;;;4921901;29;20049;-77
2022/06/05 05:33:10;;;;;;;4.55;3.47;;;20.20;51.90;;;;;;4937162;29;20032;-77
2022/06/05 05:35:36;;;;;;;3.97;3.08;;;20.20;51.90;;;;;;4921786;29;20035;-77
2022/06/05 05:38:01;;;;;;;4.30;2.92;;;20.30;52.10;;;;;;4921180;29;20067;-78
2022/06/05 05:43:11;;;;;;;5.93;3.97;;;20.20;52.10;;;;;;4937982;29;20443;-77
2022/06/05 05:45:37;;;;;;;4.20;3.22;;;20.20;52.00;;;;;;4922400;29;20448;-76
2022/06/05 05:48:03;;;;;;;4.72;3.33;;;20.20;52.10;;;;;;4954231;29;20461;-77
2022/06/05 05:50:29;;;;;;;4.28;3.13;;;20.20;52.10;;;;;;4922180;29;20017;-77
2022/06/05 05:52:55;;;;;;;5.03;3.35;;;20.20;52.20;;;;;;4922136;29;20083;-77
2022/06/05 05:55:21;;;;;;;4.38;3.22;;;20.20;52.20;;;;;;4921702;29;20039;-77
2022/06/05 05:57:48;;;;;;;4.18;3.42;;;20.20;52.20;;;;;;4936702;29;20047;-78
2022/06/05 06:00:16;;;;;;;4.22;3.20;;;20.20;52.30;;;;;;4938393;29;20469;-78
2022/06/05 06:02:43;;;;;;;4.50;3.30;;;20.20;52.30;;;;;;4936974;29;20095;-78
2022/06/05 06:05:14;;;;;;;4.88;3.25;;;20.20;52.30;;;;;;4936922;29;20032;-77
2022/06/05 06:07:39;;;;;;;4.68;3.33;;;20.20;52.40;;;;;;4938270;29;20031;-78
2022/06/05 06:10:07;;;;;;;4.45;3.30;;;20.20;52.40;;;;;;4952840;29;20039;-77
2022/06/05 06:12:33;;;;;;;5.50;3.65;;;20.20;52.40;;;;;;4905650;29;20023;-77
2022/06/05 06:14:59;;;;;;;5.32;3.63;;;20.20;52.40;;;;;;4937391;29;20027;-77
2022/06/05 06:17:25;;;;;;;4.25;3.10;;;20.20;52.40;;;;;;4920736;29;20079;-77
2022/06/05 06:19:50;;;;;;;4.43;3.47;;;20.20;52.50;;;;;;4936815;29;20033;-77
2022/06/05 06:22:17;;;;;;;5.18;3.80;;;20.20;52.50;;;;;;4936853;29;20064;-78
2022/06/05 06:24:42;;;;;;;4.88;3.38;;;20.20;52.50;;;;;;4936549;29;20047;-78
2022/06/05 06:27:08;;;;;;;4.43;3.17;;;20.10;52.50;;;;;;4937656;29;20132;-77
2022/06/05 06:29:35;;;;;;;4.97;3.85;;;20.20;52.50;;;;;;4920369;29;20038;-78
2022/06/05 06:32:01;;;;;;;3.35;2.88;;;20.20;52.60;;;;;;4952060;28;20520;-77
2022/06/05 06:34:27;;;;;;;4.72;3.53;;;20.20;52.60;;;;;;4920481;29;20028;-78
2022/06/05 06:36:53;;;;;;;5.05;3.45;;;20.10;52.60;;;;;;4920696;29;20043;-77
2022/06/05 06:39:20;;;;;;;5.22;3.72;;;20.20;52.70;;;;;;4935939;29;20126;-77
2022/06/05 06:41:47;;;;;;;4.18;3.28;;;20.10;52.60;;;;;;4919933;29;20047;-77
2022/06/05 06:44:13;;;;;;;4.10;3.40;;;20.20;52.70;;;;;;4936625;29;20368;-78
2022/06/05 06:46:39;;;;;;;4.13;3.45;;;20.20;52.70;;;;;;4935798;29;20489;-78
2022/06/05 06:49:05;;;;;;;4.65;3.30;;;20.20;52.80;;;;;;4920300;29;20055;-78
2022/06/05 06:51:31;;;;;;;5.05;3.60;;;20.20;52.80;;;;;;4937239;29;20111;-79
2022/06/05 06:53:57;;;;;;;4.50;3.30;;;20.20;52.80;;;;;;4935644;29;20050;-78
2022/06/05 06:56:26;;;;;;;5.15;3.63;;;20.20;52.90;;;;;;4919958;29;20095;-79
2022/06/05 06:58:52;;;;;;;4.35;3.42;;;20.10;52.90;;;;;;4936572;29;20027;-79
2022/06/05 07:01:18;;;;;;;4.05;3.03;;;20.20;52.90;;;;;;4936917;28;20023;-78
2022/06/05 07:03:44;;;;;;;4.40;3.22;;;20.20;52.90;;;;;;4920221;29;20035;-79
2022/06/05 07:06:12;;;;;;;4.30;3.33;;;20.20;53.00;;;;;;4919775;29;20372;-80
2022/06/05 07:08:39;;;;;;;4.43;3.30;;;20.20;53.00;;;;;;4935488;29;20166;-78
2022/06/05 07:11:07;;;;;;;4.65;3.58;;;20.20;53.00;;;;;;4937297;28;20019;-87
2022/06/05 07:13:33;;;;;;;4.40;3.25;;;20.20;53.10;;;;;;4937218;29;20031;-78
2022/06/05 07:15:59;;;;;;;3.85;3.08;;;20.20;53.10;;;;;;4935730;29;20484;-79
2022/06/05 07:18:25;;;;;;;4.40;3.42;;;20.20;53.10;;;;;;4935875;29;20032;-79
2022/06/05 07:20:51;;;;;;;4.75;3.38;;;20.20;53.10;;;;;;4935953;29;20027;-78
2022/06/05 07:23:17;;;;;;;4.85;3.45;;;20.20;53.10;;;;;;4938727;29;20031;-78
2022/06/05 07:25:48;;;;;;;4.82;3.63;;;20.20;53.10;;;;;;4941411;29;20047;-78
2022/06/05 07:28:13;;;;;;;4.60;3.17;;;20.30;53.30;;;;;;4943795;29;20067;-78
2022/06/05 07:30:39;;;;;;;4.40;3.20;;;20.30;53.20;;;;;;4940692;29;20027;-79
2022/06/05 07:33:05;;;;;;;4.60;3.17;;;20.30;53.30;;;;;;4941078;29;20051;-78
2022/06/05 07:35:31;;;;;;;4.25;3.00;;;20.30;53.30;;;;;;4937010;29;20024;-79
2022/06/05 07:37:57;;;;;;;4.65;3.08;;;20.30;53.30;;;;;;4936433;29;20361;-78
2022/06/05 07:40:23;;;;;;;4.40;3.20;;;20.30;53.30;;;;;;4936360;29;20038;-77
2022/06/05 07:42:49;;;;;;;4.30;3.08;;;20.40;54.00;;;;;;4919167;29;20044;-78
2022/06/05 07:45:16;;;;;;;3.95;3.15;;;20.40;53.40;;;;;;4919934;29;20024;-79
2022/06/05 07:47:43;;;;;;;3.47;2.92;;;20.40;53.40;;;;;;4934507;29;20103;-78
2022/06/05 07:50:10;;;;;;;4.63;3.42;;;20.40;53.40;;;;;;4935113;29;20051;-77
2022/06/05 07:55:21;;;;;;;3.88;3.25;;;20.50;53.40;;;;;;4936003;29;20027;-79
2022/06/05 07:57:47;;;;;;;4.70;3.28;;;20.50;53.40;;;;;;4936330;29;20111;-79
2022/06/05 08:00:14;;;;;;;3.83;3.08;;;20.60;53.40;;;;;;4935357;29;20031;-78
2022/06/05 08:02:40;;;;;;;4.32;3.10;;;20.60;53.50;;;;;;4936200;29;20028;-78
2022/06/05 08:05:07;;;;;;;3.95;3.08;;;20.60;53.40;;;;;;4903031;29;20047;-78
2022/06/05 08:07:34;;;;;;;5.47;3.58;;;20.70;53.50;;;;;;4935924;29;20036;-77
2022/06/05 08:10:00;;;;;;;4.22;2.92;;;20.70;53.50;;;;;;4934634;29;20131;-78
2022/06/05 08:12:30;;;;;;;4.90;3.50;;;20.70;53.50;;;;;;4935787;29;20032;-77
2022/06/05 08:14:56;;;;;;;4.20;3.15;;;20.80;53.50;;;;;;4936104;29;20071;-80
2022/06/05 08:17:30;;;;;;;4.53;3.35;;;20.80;53.50;;;;;;4934585;29;20428;-83
2022/06/05 08:19:57;;;;;;;4.20;3.10;;;20.80;53.50;;;;;;4936040;29;20547;-79
2022/06/05 08:22:24;;;;;;;3.95;3.03;;;20.90;53.50;;;;;;4935962;29;20058;-79
2022/06/05 08:24:52;;;;;;;3.65;2.92;;;20.90;53.50;;;;;;4919004;29;20055;-78
2022/06/05 08:27:23;;;;;;;4.07;3.10;;;21.00;53.50;;;;;;4935794;29;20035;-79
2022/06/05 08:29:49;;;;;;;3.42;2.80;;;21.00;53.60;;;;;;4936002;29;20028;-79
2022/06/05 08:32:15;;;;;;;3.78;3.00;;;21.00;53.50;;;;;;4936181;29;20024;-79
2022/06/05 08:34:42;;;;;;;6.25;3.22;;;21.10;53.60;;;;;;4954379;29;20472;-81
2022/06/05 08:43:02;;;;;;;3.33;2.90;;;21.20;53.50;;;;;;4936498;29;20070;-79
2022/06/05 08:45:30;;;;;;;;;;;21.30;53.60;;;;;;4939234;29;20039;-79
2022/06/05 08:48:02;;;;;;;3.00;2.33;;;21.30;53.30;;;;;;4954758;29;19911;-79
2022/06/05 08:50:40;;;;;;;3.22;2.70;;;21.40;53.40;;;;;;4938063;29;20103;-80
2022/06/05 08:53:19;;;;;;;3.70;2.95;;;21.40;53.50;;;;;;4938935;29;20046;-79
2022/06/05 08:55:47;;;;;;;3.28;2.60;;;21.50;53.60;;;;;;4939763;29;20028;-79
2022/06/05 08:58:26;;;;;;;3.60;2.83;;;21.50;53.50;;;;;;4922275;29;20111;-80
2022/06/05 09:00:57;;;;;;;3.13;2.67;;;21.60;53.60;;;;;;4937407;29;20039;-79
2022/06/05 09:03:42;;;;;;;3.97;2.92;;;21.70;53.60;;;;;;4938002;29;20075;-79
2022/06/05 09:06:32;;;;;;;4.35;2.97;;;21.80;53.70;;;;;;4938188;29;20123;-78
2022/06/05 09:09:00;;;;;;;3.55;2.95;;;21.80;53.60;;;;;;4938075;29;20454;-79
2022/06/05 09:11:41;;;;;;;3.13;2.75;;;21.90;53.50;;;;;;4937790;29;20107;-78
2022/06/05 09:14:36;;;;;;;3.95;2.90;;;21.90;53.60;;;;;;4937730;29;20449;-79
2022/06/05 09:17:22;;;;;;;3.40;2.58;;;22.00;53.60;;;;;;4937264;29;20032;-79
2022/06/05 09:19:50;;;;;;;3.85;2.90;;;22.10;53.60;;;;;;4937767;29;20048;-79
2022/06/05 09:22:57;;;;;;;3.35;2.90;;;22.20;53.50;;;;;;4938600;29;20027;-79
2022/06/05 09:25:45;;;;;;;2.83;2.42;;;22.20;53.50;;;;;;4926856;29;20055;-79
2022/06/05 09:28:24;;;;;;;2.92;2.60;;;22.30;53.50;;;;;;4938682;29;20082;-79
2022/06/05 09:31:00;;;;;;;3.25;2.83;;;22.40;53.40;;;;;;4937441;29;20456;-82
2022/06/05 09:33:35;;;;;;;3.10;2.80;;;22.50;53.40;;;;;;4952922;29;20042;-80
2022/06/05 09:36:06;;;;;;;3.55;2.90;;;22.60;53.40;;;;;;4937952;29;20043;-82
2022/06/05 09:38:43;;;;;;;2.80;2.50;;;22.60;53.30;;;;;;4938483;29;20059;-79
2022/06/05 09:41:11;;;;;;;3.30;2.58;;;22.70;53.30;;;;;;4938019;29;20091;-79
2022/06/05 09:43:44;;;;;;;3.70;2.83;;;22.80;53.30;;;;;;4952705;29;20042;-80
2022/06/05 09:46:28;;;;;;;3.17;2.58;;;22.90;53.30;;;;;;4936862;29;20032;-78
2022/06/05 09:48:57;;;;;;;3.75;3.00;;;23.00;53.40;;;;;;4952524;29;20062;-79
2022/06/05 09:51:23;;;;;;;4.18;2.75;;;23.00;53.20;;;;;;4936598;29;20108;-78
2022/06/05 09:54:00;;;;;;;3.50;3.20;;;23.10;53.20;;;;;;4936809;29;20110;-79
2022/06/05 09:59:45;;;;;;;3.00;2.60;;;23.20;53.20;;;;;;4937870;29;20038;-82
2022/06/05 10:02:11;;;;;;;3.20;2.90;;;23.30;53.10;;;;;;4953482;29;20035;-81
2022/06/05 10:04:38;;;;;;;3.50;2.78;;;23.30;53.00;;;;;;4938328;29;20024;-81
2022/06/05 10:07:16;;;;;;;3.35;2.53;;;23.40;53.00;;;;;;4936989;29;20028;-80
2022/06/05 10:09:46;;;;;;;4.07;2.85;;;23.40;53.00;;;;;;4936589;29;20098;-80
2022/06/05 10:12:25;;;;;;;3.60;2.67;;;23.60;52.90;;;;;;4920235;29;20032;-78
2022/06/05 10:15:15;;;;;;;3.15;2.72;;;23.60;52.90;;;;;;4937925;29;20516;-80
2022/06/05 10:17:58;;;;;;;2.65;2.40;;;23.60;52.90;;;;;;4936659;29;20115;-80
2022/06/05 10:20:42;;;;;;;4.20;2.75;;;23.70;52.80;;;;;;4938369;29;20059;-80
2022/06/05 10:23:32;;;;;;;3.72;2.90;;;23.80;52.70;;;;;;4937283;29;20039;-80
2022/06/05 10:26:34;;;;;;;2.88;2.58;;;23.80;52.60;;;;;;4936036;29;20111;-81
2022/06/05 10:29:15;;;;;;;3.47;2.53;;;23.80;52.70;;;;;;4920372;29;20028;-81
2022/06/05 10:31:52;;;;;;;2.70;2.45;;;23.80;52.50;;;;;;4936494;29;20039;-82
2022/06/05 10:34:23;;;;;;;2.58;2.33;;;23.90;52.50;;;;;;4937498;29;20087;-80
2022/06/05 10:36:59;;;;;;;2.78;2.47;;;23.90;52.50;;;;;;4952883;29;20051;-80
2022/06/05 10:39:40;;;;;;;2.70;2.30;;;24.00;52.50;;;;;;4952512;29;20038;-81
2022/06/05 10:42:16;;;;;;;3.13;2.58;;;24.00;52.40;;;;;;4936450;29;20072;-79
2022/06/05 10:45:00;;;;;;;3.00;2.40;;;24.00;52.40;;;;;;4952354;29;20036;-81
2022/06/05 10:47:49;;;;;;;2.83;2.42;;;24.10;52.50;;;;;;4937257;29;20032;-79
2022/06/05 10:50:15;;;;;;;3.13;2.60;;;24.10;52.30;;;;;;4936982;29;20119;-80
2022/06/05 10:52:46;;;;;;;2.78;2.47;;;24.20;52.40;;;;;;4952906;29;20047;-80
2022/06/05 10:55:18;;;;;;;3.38;2.72;;;24.20;52.40;;;;;;4936657;29;20023;-79
2022/06/05 10:57:59;;;;;;;2.50;2.30;;;24.20;52.30;;;;;;4936566;29;20034;-79
2022/06/05 11:00:31;;;;;;;3.13;2.55;;;24.20;52.40;;;;;;4935824;29;20111;-81
2022/06/05 11:03:16;;;;;;;3.85;2.70;;;24.20;52.30;;;;;;4936823;29;20528;-81
2022/06/05 11:05:54;;;;;;;2.95;2.65;;;24.30;52.40;;;;;;4951426;29;20499;-80
2022/06/05 11:08:38;;;;;;;3.20;2.80;;;24.30;52.30;;;;;;4935141;29;20038;-81
2022/06/05 11:14:47;;;;;;;2.80;2.50;;;24.30;52.30;;;;;;4951590;29;20575;-80
2022/06/05 11:17:24;;;;;;;3.13;2.67;;;24.40;52.30;;;;;;4935558;29;20091;-80
2022/06/05 11:20:17;;;;;;;2.72;2.53;;;24.40;52.20;;;;;;4951753;29;20110;-79
2022/06/05 11:22:54;;;;;;;3.20;2.60;;;24.40;52.40;;;;;;4935623;29;20487;-82
2022/06/05 11:25:30;;;;;;;2.70;2.50;;;24.40;52.30;;;;;;4937822;29;20488;-78
2022/06/05 11:28:01;;;;;;;2.60;2.40;;;24.40;52.20;;;;;;4938057;29;20058;-78
2022/06/05 11:30:54;;;;;;;3.53;2.78;;;24.40;52.20;;;;;;4938134;29;20024;-81
2022/06/05 11:33:26;;;;;;;3.35;2.60;;;24.40;52.30;;;;;;4954293;29;20062;-77
2022/06/05 11:36:01;;;;;;;2.92;2.55;;;24.40;52.20;;;;;;4935964;29;20037;-76
2022/06/05 11:38:38;;;;;;;3.03;2.60;;;24.50;52.20;;;;;;4951536;29;20040;-77
2022/06/05 11:41:20;;;;;;;3.47;2.60;;;24.50;52.20;;;;;;4952077;29;20038;-77
2022/06/05 11:44:05;;;;;;;3.33;2.63;;;24.50;52.20;;;;;;4936884;29;20032;-77
2022/06/05 11:46:37;;;;;;;3.33;2.55;;;24.50;52.80;;;;;;4937635;29;20046;-79
2022/06/05 11:49:47;;;;;;;2.90;2.55;;;24.50;52.10;;;;;;4938771;29;20060;-78
2022/06/05 11:52:29;;;;;;;2.67;2.47;;;24.50;52.10;;;;;;4902483;29;20096;-77
2022/06/05 11:55:00;;;;;;;3.15;2.70;;;24.60;52.20;;;;;;4900326;29;20127;-78
2022/06/05 11:57:42;;;;;;;2.67;2.42;;;24.60;52.10;;;;;;4916809;29;20101;-77
2022/06/05 12:00:20;;;;;;;3.53;2.85;;;24.60;52.10;;;;;;4919588;29;20028;-77
2022/06/05 12:02:59;;;;;;;3.10;2.60;;;24.60;52.10;;;;;;4936130;29;20027;-76
2022/06/05 12:05:54;;;;;;;2.75;2.45;;;24.60;52.10;;;;;;4936282;29;20115;-76
2022/06/05 12:08:28;;;;;;;;;;;24.60;52.10;;;;;;4936339;29;20028;-76
2022/06/05 12:11:05;;;;;;;2.30;2.10;;;24.60;52.00;;;;;;4935419;29;19907;-76
2022/06/05 12:13:30;;;;;;;3.05;2.72;;;24.60;52.10;;;;;;4935405;29;20028;-78
2022/06/05 12:16:10;;;;;;;3.53;2.75;;;24.60;52.10;;;;;;4935724;29;20020;-76
2022/06/05 12:18:48;;;;;;;2.80;2.53;;;24.60;52.10;;;;;;4936094;29;20042;-76
2022/06/05 12:21:35;;;;;;;3.17;2.75;;;24.60;52.10;;;;;;4938205;29;20432;-77
2022/06/05 12:24:19;;;;;;;3.28;2.80;;;24.60;52.10;;;;;;4939166;29;20038;-78
2022/06/05 12:26:51;;;;;;;2.75;2.53;;;24.60;52.20;;;;;;4937734;29;20027;-78
2022/06/05 12:29:30;;;;;;;3.03;2.58;;;24.60;52.10;;;;;;4939288;29;20472;-80
2022/06/05 12:32:09;;;;;;;2.80;2.50;;;24.60;52.20;;;;;;4939337;29;20461;-79
2022/06/05 12:34:41;;;;;;;3.13;2.83;;;24.60;52.30;;;;;;4921981;29;20034;-79
2022/06/05 12:37:22;;;;;;;3.83;2.85;;;24.60;52.20;;;;;;4938378;29;20036;-79
2022/06/05 12:39:51;;;;;;;3.50;3.08;;;24.60;52.30;;;;;;4954208;29;20451;-78
2022/06/05 12:42:40;;;;;;;3.13;2.83;;;24.60;52.40;;;;;;4939464;28;20047;-81
2022/06/05 12:45:22;;;;;;;4.10;3.10;;;24.60;52.60;;;;;;4953889;29;20031;-78
2022/06/05 12:47:54;;;;;;;3.25;2.95;;;24.60;52.70;;;;;;4938636;29;20361;-78
2022/06/05 12:50:45;;;;;;;4.05;3.40;;;24.60;52.80;;;;;;4939025;29;20035;-77
2022/06/05 12:53:23;;;;;;;3.53;2.90;;;24.60;53.10;;;;;;4938132;29;20445;-77
2022/06/05 12:55:54;;;;;;;3.30;2.95;;;24.60;53.10;;;;;;4938933;29;20016;-77
2022/06/05 12:58:20;;;;;;;3.70;3.28;;;24.60;53.20;;;;;;4937667;29;20084;-78
2022/06/05 13:00:48;;;;;;;5.00;3.88;;;24.50;53.30;;;;;;4953975;29;20031;-79
2022/06/05 13:04:06;;;;;;;4.78;3.97;;;24.50;53.40;;;;;;4938039;29;20028;-77
2022/06/05 13:06:47;;;;;;;4.63;3.65;;;24.50;53.70;;;;;;4916904;29;20074;-78
2022/06/05 13:09:41;;;;;;;4.10;3.60;;;24.60;53.70;;;;;;4938728;29;20165;-78
2022/06/05 13:12:13;;;;;;;4.00;3.50;;;24.50;53.90;;;;;;4935654;29;20047;-78
2022/06/05 13:14:48;;;;;;;4.43;3.63;;;24.50;53.80;;;;;;4953715;29;20031;-78
2022/06/05 13:17:22;;;;;;;4.28;3.60;;;24.50;54.00;;;;;;4937226;29;20043;-78
2022/06/05 13:20:00;;;;;;;4.28;3.88;;;24.50;54.00;;;;;;4938736;29;20111;-79
2022/06/05 13:22:33;;;;;;;5.13;3.72;;;24.50;54.20;;;;;;4938923;29;20150;-79
2022/06/05 13:25:21;;;;;;;4.35;3.95;;;24.50;54.20;;;;;;4954236;29;20058;-82
2022/06/05 13:28:05;;;;;;;5.10;3.88;;;24.50;54.30;;;;;;4937825;29;20114;-80
2022/06/05 13:30:41;;;;;;;5.50;4.00;;;24.50;54.30;;;;;;4936864;29;20043;-81
2022/06/05 13:33:25;;;;;;;4.32;3.78;;;24.50;54.40;;;;;;4936916;29;20475;-80
2022/06/05 13:36:06;;;;;;;4.47;4.03;;;24.50;54.60;;;;;;4953485;29;20031;-81